Time;durP1;ratioP1;P1;durP2;ratioP2;P2;SDS_P1;SDS_P2;PMS_P1;PMS_P2;Temp;Humidity;BMP_temperature;BMP_pressure;BME280_temperature;BME280_humidity;BME280_pressure;Samples;Min_cycle;Max_cycle;Signal;HPM_P1;HPM_P2
2024/03/04 00:02:17;;;;;;;0.20;0.10;;;;;;;;;;5027078;28;20421;-79
2024/03/04 00:04:43;;;;;;;0.20;0.13;;;;;;;;;;5027520;28;20730;-79
2024/03/04 00:07:09;;;;;;;0.20;0.20;;;;;;;;;;5042178;28;20098;-79
2024/03/04 00:09:35;;;;;;;0.22;0.13;;;;;;;;;;5055389;22;20053;-80
2024/03/04 00:12:01;;;;;;;0.20;0.10;;;;;;;;;;5043376;28;20041;-80
2024/03/04 00:14:27;;;;;;;0.75;0.75;;;;;;;;;;5041574;28;20075;-80
2024/03/04 00:16:53;;;;;;;0.20;0.00;;;;;;;;;;5043588;28;20045;-79
2024/03/04 00:19:19;;;;;;;0.20;0.00;;;;;;;;;;5010601;28;20061;-79
2024/03/04 00:21:46;;;;;;;2.13;1.17;;;;;;;;;;5017769;28;20072;-80
2024/03/04 00:24:12;;;;;;;0.20;0.10;;;;;;;;;;5018254;28;20045;-80
2024/03/04 00:26:38;;;;;;;0.20;0.05;;;;;;;;;;5005233;28;20053;-80
2024/03/04 00:29:04;;;;;;;0.80;0.25;;;;;;;;;;5005760;28;20041;-80
2024/03/04 00:31:30;;;;;;;0.20;0.00;;;;;;;;;;5019148;28;20098;-81
2024/03/04 00:33:57;;;;;;;0.20;0.10;;;;;;;;;;5005173;28;20049;-81
2024/03/04 00:36:24;;;;;;;0.20;0.10;;;;;;;;;;5019714;28;20084;-81
2024/03/04 00:38:54;;;;;;;0.20;0.10;;;;;;;;;;5003989;28;20510;-81
2024/03/04 00:41:27;;;;;;;0.77;0.77;;;;;;;;;;5003950;28;20171;-80
2024/03/04 00:43:53;;;;;;;0.20;0.10;;;;;;;;;;5021817;28;20667;-80
2024/03/04 00:46:21;;;;;;;0.20;0.10;;;;;;;;;;5021589;28;20052;-81
2024/03/04 00:48:47;;;;;;;0.30;0.30;;;;;;;;;;5007648;28;20037;-81
2024/03/04 00:51:14;;;;;;;0.85;0.52;;;;;;;;;;5005024;28;20041;-80
2024/03/04 00:53:40;;;;;;;0.30;0.25;;;;;;;;;;5017296;28;20046;-80
2024/03/04 00:56:07;;;;;;;0.50;0.30;;;;;;;;;;5017540;28;20053;-80
2024/03/04 00:58:33;;;;;;;0.35;0.35;;;;;;;;;;5019576;28;20045;-79
2024/03/04 01:00:59;;;;;;;1.35;0.75;;;;;;;;;;5003523;28;20064;-80
2024/03/04 01:03:26;;;;;;;0.40;0.40;;;;;;;;;;5020814;28;20523;-79
2024/03/04 01:05:52;;;;;;;0.30;0.20;;;;;;;;;;5024887;28;20052;-79
2024/03/04 01:08:18;;;;;;;0.55;0.55;;;;;;;;;;5005445;28;20446;-80
2024/03/04 01:10:45;;;;;;;1.05;0.70;;;;;;;;;;5021051;28;20041;-79
2024/03/04 01:13:11;;;;;;;0.20;0.08;;;;;;;;;;5020885;28;20038;-81
2024/03/04 01:15:37;;;;;;;0.20;0.20;;;;;;;;;;5004440;28;20033;-79
2024/03/04 01:18:04;;;;;;;0.52;0.43;;;;;;;;;;5020827;28;20052;-79
2024/03/04 01:20:32;;;;;;;0.40;0.40;;;;;;;;;;5009987;28;20636;-79
2024/03/04 01:22:58;;;;;;;0.43;0.43;;;;;;;;;;5019369;28;20051;-80
2024/03/04 01:25:25;;;;;;;0.60;0.30;;;;;;;;;;5008481;28;20041;-80
2024/03/04 01:27:51;;;;;;;0.75;0.47;;;;;;;;;;5022487;28;20501;-80
2024/03/04 01:30:17;;;;;;;0.20;0.05;;;;;;;;;;5020292;28;20060;-80
2024/03/04 01:32:43;;;;;;;0.63;0.63;;;;;;;;;;5004100;28;20049;-80
2024/03/04 01:35:11;;;;;;;0.20;0.20;;;;;;;;;;5021817;28;20045;-80
2024/03/04 01:37:42;;;;;;;0.30;0.25;;;;;;;;;;5021990;28;20041;-80
2024/03/04 01:40:08;;;;;;;1.33;0.55;;;;;;;;;;5020961;28;20065;-79
2024/03/04 01:42:34;;;;;;;0.65;0.25;;;;;;;;;;5019726;28;20041;-79
2024/03/04 01:45:00;;;;;;;0.20;0.10;;;;;;;;;;5021883;28;20041;-80
2024/03/04 01:47:26;;;;;;;0.20;0.10;;;;;;;;;;5009464;28;20126;-80
2024/03/04 01:49:53;;;;;;;0.20;0.08;;;;;;;;;;5004915;28;20044;-79
2024/03/04 01:52:20;;;;;;;0.20;0.10;;;;;;;;;;4999775;28;20045;-80
2024/03/04 01:54:47;;;;;;;0.68;0.20;;;;;;;;;;5017115;28;20048;-80
2024/03/04 01:57:17;;;;;;;0.85;0.68;;;;;;;;;;5005983;28;20044;-80
2024/03/04 01:59:44;;;;;;;0.43;0.40;;;;;;;;;;5007764;28;20112;-80
2024/03/04 02:02:11;;;;;;;0.20;0.20;;;;;;;;;;5002534;28;20041;-79
2024/03/04 02:04:38;;;;;;;0.20;0.00;;;;;;;;;;5003684;28;20072;-80
2024/03/04 02:07:05;;;;;;;0.52;0.22;;;;;;;;;;5024296;28;20161;-79
2024/03/04 02:09:32;;;;;;;0.25;0.20;;;;;;;;;;5006119;28;20406;-79
2024/03/04 02:11:59;;;;;;;1.15;0.63;;;;;;;;;;5019070;28;20037;-80
2024/03/04 02:14:25;;;;;;;0.20;0.10;;;;;;;;;;5019562;28;20509;-80
2024/03/04 02:16:51;;;;;;;0.35;0.32;;;;;;;;;;5003814;28;20095;-80
2024/03/04 02:19:18;;;;;;;1.13;0.40;;;;;;;;;;5006965;28;20056;-80
2024/03/04 02:21:47;;;;;;;0.20;0.10;;;;;;;;;;5004704;28;20042;-79
2024/03/04 02:24:14;;;;;;;0.20;0.00;;;;;;;;;;5002391;28;20052;-80
2024/03/04 02:26:40;;;;;;;0.20;0.10;;;;;;;;;;5003624;28;20125;-80
2024/03/04 02:29:06;;;;;;;0.40;0.40;;;;;;;;;;5005871;28;20034;-79
2024/03/04 02:31:32;;;;;;;0.40;0.30;;;;;;;;;;5007677;28;20418;-80
2024/03/04 02:33:58;;;;;;;0.85;0.47;;;;;;;;;;5020958;28;20124;-80
2024/03/04 02:36:24;;;;;;;0.60;0.47;;;;;;;;;;5021799;28;20041;-79
2024/03/04 02:38:52;;;;;;;0.50;0.43;;;;;;;;;;5004906;28;20068;-80
2024/03/04 02:41:19;;;;;;;0.22;0.15;;;;;;;;;;5008287;28;20606;-80
2024/03/04 02:43:47;;;;;;;0.32;0.32;;;;;;;;;;5005230;28;20049;-80
2024/03/04 02:46:14;;;;;;;0.20;0.10;;;;;;;;;;5007312;28;20533;-80
2024/03/04 02:48:40;;;;;;;0.20;0.10;;;;;;;;;;5019651;28;20041;-80
2024/03/04 02:51:06;;;;;;;0.20;0.20;;;;;;;;;;5019875;28;20044;-80
2024/03/04 02:53:32;;;;;;;0.85;0.40;;;;;;;;;;5017652;28;20037;-80
2024/03/04 02:55:58;;;;;;;0.40;0.35;;;;;;;;;;5007267;28;20136;-79
2024/03/04 02:58:24;;;;;;;1.63;0.60;;;;;;;;;;5007146;28;20526;-80
2024/03/04 03:00:50;;;;;;;1.85;0.45;;;;;;;;;;5005536;28;20045;-80
2024/03/04 03:03:17;;;;;;;0.20;0.10;;;;;;;;;;5016580;28;20049;-79
2024/03/04 03:05:43;;;;;;;0.20;0.10;;;;;;;;;;5021088;28;20060;-80
2024/03/04 03:08:09;;;;;;;1.67;0.77;;;;;;;;;;5000145;28;20033;-80
2024/03/04 03:10:36;;;;;;;0.20;0.10;;;;;;;;;;5017619;28;20046;-80
2024/03/04 03:13:02;;;;;;;0.90;0.63;;;;;;;;;;5001186;28;20621;-79
2024/03/04 03:15:28;;;;;;;0.20;0.10;;;;;;;;;;5015841;28;20046;-80
2024/03/04 03:17:54;;;;;;;0.57;0.47;;;;;;;;;;5005427;28;20509;-80
2024/03/04 03:20:20;;;;;;;0.20;0.10;;;;;;;;;;5001662;28;20064;-79
2024/03/04 03:22:48;;;;;;;0.20;0.10;;;;;;;;;;5000841;28;20486;-80
2024/03/04 03:25:15;;;;;;;0.32;0.32;;;;;;;;;;5019478;28;20083;-80
2024/03/04 03:27:41;;;;;;;0.22;0.22;;;;;;;;;;5021260;28;20049;-80
2024/03/04 03:30:07;;;;;;;0.30;0.20;;;;;;;;;;5016506;28;20049;-79
2024/03/04 03:32:36;;;;;;;0.68;0.52;;;;;;;;;;5015796;28;20045;-80
2024/03/04 03:35:03;;;;;;;0.65;0.35;;;;;;;;;;5019655;28;20069;-80
2024/03/04 03:37:30;;;;;;;0.20;0.20;;;;;;;;;;5016854;28;20037;-80
2024/03/04 03:39:56;;;;;;;0.20;0.10;;;;;;;;;;5000921;28;20049;-80
2024/03/04 03:42:22;;;;;;;1.00;0.43;;;;;;;;;;5020839;28;20036;-80
2024/03/04 03:44:48;;;;;;;0.20;0.10;;;;;;;;;;5020635;28;20414;-79
2024/03/04 03:47:16;;;;;;;0.55;0.38;;;;;;;;;;5003276;28;20049;-80
2024/03/04 03:49:42;;;;;;;0.85;0.85;;;;;;;;;;5008178;28;20052;-79
2024/03/04 03:52:08;;;;;;;0.20;0.10;;;;;;;;;;5022443;28;20037;-80
2024/03/04 03:54:34;;;;;;;0.25;0.10;;;;;;;;;;5007589;28;20631;-80
2024/03/04 03:57:00;;;;;;;0.63;0.63;;;;;;;;;;5005546;28;20048;-80
2024/03/04 03:59:26;;;;;;;0.20;0.00;;;;;;;;;;5002579;28;20033;-80
2024/03/04 04:01:52;;;;;;;0.63;0.45;;;;;;;;;;5004005;28;20043;-80
2024/03/04 04:04:18;;;;;;;0.20;0.10;;;;;;;;;;5022084;28;20083;-80
2024/03/04 04:06:44;;;;;;;0.20;0.20;;;;;;;;;;5003850;28;20516;-80
2024/03/04 04:09:10;;;;;;;0.28;0.17;;;;;;;;;;5005066;28;20050;-80
2024/03/04 04:11:36;;;;;;;0.80;0.80;;;;;;;;;;5020337;28;20046;-79
2024/03/04 04:14:02;;;;;;;1.17;1.08;;;;;;;;;;5017418;28;20050;-80
2024/03/04 04:16:29;;;;;;;0.20;0.10;;;;;;;;;;5004055;28;20041;-80
2024/03/04 04:18:55;;;;;;;0.20;0.10;;;;;;;;;;5016422;28;20033;-79
2024/03/04 04:21:21;;;;;;;0.20;0.10;;;;;;;;;;5005606;28;20030;-80
2024/03/04 04:23:47;;;;;;;0.38;0.38;;;;;;;;;;5024647;28;20044;-80
2024/03/04 04:26:23;;;;;;;0.52;0.35;;;;;;;;;;5024924;28;20049;-80
2024/03/04 04:28:49;;;;;;;0.20;0.10;;;;;;;;;;5013691;28;20046;-80
2024/03/04 04:31:19;;;;;;;0.20;0.20;;;;;;;;;;5028144;28;20472;-80
2024/03/04 04:33:45;;;;;;;0.60;0.47;;;;;;;;;;5024347;28;20124;-80
2024/03/04 04:36:12;;;;;;;0.35;0.10;;;;;;;;;;5029414;28;20131;-80
2024/03/04 04:38:38;;;;;;;0.20;0.15;;;;;;;;;;5028802;28;20034;-79
2024/03/04 04:41:04;;;;;;;1.08;0.38;;;;;;;;;;5027441;28;20079;-79
2024/03/04 04:43:33;;;;;;;0.50;0.40;;;;;;;;;;5013891;28;20038;-80
2024/03/04 04:46:00;;;;;;;1.52;0.60;;;;;;;;;;5013118;28;20065;-80
2024/03/04 04:48:26;;;;;;;0.20;0.10;;;;;;;;;;5023085;28;20037;-79
2024/03/04 04:50:52;;;;;;;0.20;0.10;;;;;;;;;;5025487;28;20042;-79
2024/03/04 04:53:20;;;;;;;0.28;0.22;;;;;;;;;;5015356;28;20037;-80
2024/03/04 04:55:46;;;;;;;0.90;0.20;;;;;;;;;;5011902;28;20037;-80
2024/03/04 04:58:16;;;;;;;0.20;0.10;;;;;;;;;;5024706;28;20038;-80
2024/03/04 05:00:42;;;;;;;0.25;0.15;;;;;;;;;;5016812;28;20060;-80
2024/03/04 05:03:08;;;;;;;0.20;0.10;;;;;;;;;;5007447;28;20492;-79
2024/03/04 05:05:34;;;;;;;0.20;0.10;;;;;;;;;;5021866;28;20046;-80
2024/03/04 05:08:00;;;;;;;0.20;0.10;;;;;;;;;;5008066;28;20386;-80
2024/03/04 05:10:26;;;;;;;0.20;0.10;;;;;;;;;;5016502;28;20033;-80
2024/03/04 05:12:52;;;;;;;0.20;0.20;;;;;;;;;;5004042;28;20079;-80
2024/03/04 05:15:18;;;;;;;0.30;0.20;;;;;;;;;;5019648;28;20565;-79
2024/03/04 05:17:46;;;;;;;0.20;0.10;;;;;;;;;;5002243;28;20063;-80
2024/03/04 05:20:15;;;;;;;0.20;0.10;;;;;;;;;;5006548;28;20509;-80
2024/03/04 05:22:41;;;;;;;0.20;0.20;;;;;;;;;;5019566;28;20045;-81
2024/03/04 05:25:08;;;;;;;0.20;0.00;;;;;;;;;;5006785;28;20124;-81
2024/03/04 05:27:34;;;;;;;0.38;0.38;;;;;;;;;;5015676;28;20045;-81
2024/03/04 05:30:00;;;;;;;0.25;0.25;;;;;;;;;;5001230;28;20145;-80
2024/03/04 05:32:26;;;;;;;0.20;0.10;;;;;;;;;;5008840;28;20524;-80
2024/03/04 05:34:52;;;;;;;0.20;0.10;;;;;;;;;;5005595;28;20461;-80
2024/03/04 05:37:18;;;;;;;0.40;0.38;;;;;;;;;;5021423;28;20034;-80
2024/03/04 05:39:47;;;;;;;1.60;0.30;;;;;;;;;;5018446;28;20053;-79
2024/03/04 05:42:13;;;;;;;0.20;0.10;;;;;;;;;;5016617;28;20033;-80
2024/03/04 05:44:39;;;;;;;1.00;0.73;;;;;;;;;;5019848;28;20041;-80
2024/03/04 05:47:06;;;;;;;0.20;0.10;;;;;;;;;;5004410;28;20398;-80
2024/03/04 05:49:32;;;;;;;0.20;0.00;;;;;;;;;;5022240;28;20041;-80
2024/03/04 05:51:59;;;;;;;3.50;1.25;;;;;;;;;;5021410;28;20749;-80
2024/03/04 05:54:26;;;;;;;0.20;0.17;;;;;;;;;;5018343;28;20098;-80
2024/03/04 05:56:52;;;;;;;0.20;0.10;;;;;;;;;;5002683;28;20040;-79
2024/03/04 05:59:18;;;;;;;4.22;0.63;;;;;;;;;;5020683;28;20048;-80
2024/03/04 06:01:45;;;;;;;0.20;0.10;;;;;;;;;;5004914;28;20167;-80
2024/03/04 06:04:11;;;;;;;0.35;0.32;;;;;;;;;;5023306;28;20060;-81
2024/03/04 06:06:37;;;;;;;0.30;0.30;;;;;;;;;;5022770;28;20052;-79
2024/03/04 06:11:39;;;;;;;0.20;0.17;;;;;;;;;;4904762;26;20063;-80
2024/03/04 06:14:05;;;;;;;0.20;0.10;;;;;;;;;;5044244;28;20059;-78
2024/03/04 06:16:31;;;;;;;0.20;0.10;;;;;;;;;;5079551;28;20032;-78
2024/03/04 06:18:57;;;;;;;0.20;0.10;;;;;;;;;;5072428;28;20037;-78
2024/03/04 06:21:23;;;;;;;0.20;0.10;;;;;;;;;;5070926;28;20033;-78
2024/03/04 06:23:49;;;;;;;0.52;0.43;;;;;;;;;;5071320;28;20068;-79
2024/03/04 06:26:15;;;;;;;0.20;0.20;;;;;;;;;;5053816;28;20044;-79
2024/03/04 06:28:41;;;;;;;0.20;0.10;;;;;;;;;;5050131;28;20056;-77
2024/03/04 06:31:08;;;;;;;0.20;0.10;;;;;;;;;;5030214;28;20060;-77
2024/03/04 06:33:34;;;;;;;1.85;0.45;;;;;;;;;;5066926;28;20041;-78
2024/03/04 06:36:00;;;;;;;0.43;0.40;;;;;;;;;;5037793;28;20084;-79
2024/03/04 06:38:27;;;;;;;0.20;0.20;;;;;;;;;;5070396;28;20048;-77
2024/03/04 06:40:53;;;;;;;0.20;0.10;;;;;;;;;;5052605;28;20068;-78
2024/03/04 06:43:20;;;;;;;0.35;0.25;;;;;;;;;;5054746;28;21304;-77
2024/03/04 06:45:46;;;;;;;0.20;0.00;;;;;;;;;;5073566;28;20102;-78
2024/03/04 06:48:12;;;;;;;0.20;0.17;;;;;;;;;;5070197;28;20040;-77
2024/03/04 06:50:38;;;;;;;0.55;0.55;;;;;;;;;;5060455;28;20045;-78
2024/03/04 06:53:04;;;;;;;0.30;0.30;;;;;;;;;;5071121;28;20044;-78
2024/03/04 06:55:30;;;;;;;0.20;0.10;;;;;;;;;;5068690;28;20037;-78
2024/03/04 06:57:56;;;;;;;0.20;0.10;;;;;;;;;;5070076;28;20043;-78
2024/03/04 07:00:22;;;;;;;0.20;0.10;;;;;;;;;;5082270;28;20028;-79
2024/03/04 07:02:48;;;;;;;0.20;0.00;;;;;;;;;;5073801;28;20143;-78
2024/03/04 07:05:14;;;;;;;0.20;0.00;;;;;;;;;;5036477;28;20056;-79
2024/03/04 07:07:40;;;;;;;0.63;0.32;;;;;;;;;;5040248;28;20044;-80
2024/03/04 07:10:07;;;;;;;0.20;0.10;;;;;;;;;;5035714;28;21358;-79
2024/03/04 07:12:36;;;;;;;1.00;0.50;;;;;;;;;;5069297;28;20044;-77
2024/03/04 07:15:02;;;;;;;0.20;0.10;;;;;;;;;;5062390;28;20037;-76
2024/03/04 07:17:28;;;;;;;0.20;0.10;;;;;;;;;;5074063;28;20075;-78
2024/03/04 07:19:54;;;;;;;0.20;0.17;;;;;;;;;;5074310;28;20060;-77
2024/03/04 07:22:20;;;;;;;0.20;0.05;;;;;;;;;;5070252;28;20041;-78
2024/03/04 07:24:46;;;;;;;0.20;0.13;;;;;;;;;;5069072;28;20064;-77
2024/03/04 07:27:12;;;;;;;0.47;0.47;;;;;;;;;;5065128;28;20124;-78
2024/03/04 07:29:38;;;;;;;0.77;0.45;;;;;;;;;;5066424;28;20547;-77
2024/03/04 07:32:04;;;;;;;0.20;0.08;;;;;;;;;;5074791;28;20372;-77
2024/03/04 07:34:30;;;;;;;0.22;0.08;;;;;;;;;;5067815;28;20145;-77
2024/03/04 07:36:57;;;;;;;0.43;0.35;;;;;;;;;;5073084;28;20316;-81
2024/03/04 07:39:23;;;;;;;0.20;0.10;;;;;;;;;;5033439;28;20040;-79
2024/03/04 07:41:50;;;;;;;0.20;0.08;;;;;;;;;;5035928;28;20056;-78
2024/03/04 07:44:17;;;;;;;0.20;0.10;;;;;;;;;;5061611;28;20098;-83
2024/03/04 07:46:44;;;;;;;0.20;0.10;;;;;;;;;;5038520;28;20053;-82
2024/03/04 07:49:10;;;;;;;0.20;0.00;;;;;;;;;;5025741;28;20464;-82
2024/03/04 07:51:36;;;;;;;0.20;0.00;;;;;;;;;;5021463;28;20052;-81
2024/03/04 07:54:04;;;;;;;0.30;0.30;;;;;;;;;;5016565;28;20045;-81
2024/03/04 07:56:30;;;;;;;0.20;0.00;;;;;;;;;;5019048;28;20039;-82
2024/03/04 07:58:56;;;;;;;0.20;0.10;;;;;;;;;;5045739;28;20044;-82
2024/03/04 08:01:22;;;;;;;0.25;0.20;;;;;;;;;;5045500;28;20048;-81
2024/03/04 08:03:51;;;;;;;0.20;0.10;;;;;;;;;;5028998;28;20044;-80
2024/03/04 08:06:19;;;;;;;0.20;0.10;;;;;;;;;;5051669;28;20657;-80
2024/03/04 08:08:45;;;;;;;0.32;0.30;;;;;;;;;;5045463;28;20041;-81
2024/03/04 08:11:11;;;;;;;0.20;0.15;;;;;;;;;;5071150;28;20032;-79
2024/03/04 08:13:37;;;;;;;0.20;0.00;;;;;;;;;;5037211;28;20049;-80
2024/03/04 08:16:03;;;;;;;0.20;0.10;;;;;;;;;;5060806;28;20060;-80
2024/03/04 08:18:29;;;;;;;0.20;0.20;;;;;;;;;;5072818;28;20040;-79
2024/03/04 08:20:55;;;;;;;0.60;0.60;;;;;;;;;;5070745;28;20048;-80
2024/03/04 08:23:22;;;;;;;0.20;0.10;;;;;;;;;;5043468;28;20200;-80
2024/03/04 08:25:48;;;;;;;0.20;0.10;;;;;;;;;;5053118;28;20076;-81
2024/03/04 08:28:14;;;;;;;0.20;0.10;;;;;;;;;;5031967;28;20137;-79
2024/03/04 08:30:40;;;;;;;0.30;0.20;;;;;;;;;;5027524;28;20051;-80
2024/03/04 08:33:06;;;;;;;1.27;0.85;;;;;;;;;;5064033;28;20037;-80
2024/03/04 08:35:32;;;;;;;0.20;0.00;;;;;;;;;;5038040;28;20040;-78
2024/03/04 08:37:58;;;;;;;0.25;0.17;;;;;;;;;;5070464;28;20048;-79
2024/03/04 08:40:30;;;;;;;0.20;0.08;;;;;;;;;;5075879;28;20074;-78
2024/03/04 08:42:57;;;;;;;0.20;0.10;;;;;;;;;;5070309;28;20051;-79
2024/03/04 08:45:23;;;;;;;0.20;0.00;;;;;;;;;;5052346;28;20044;-79
2024/03/04 08:47:49;;;;;;;0.57;0.52;;;;;;;;;;5074621;28;20062;-78
2024/03/04 08:50:15;;;;;;;0.20;0.10;;;;;;;;;;5060097;28;20047;-78
2024/03/04 08:52:41;;;;;;;0.32;0.25;;;;;;;;;;5050752;28;20044;-80
2024/03/04 08:55:07;;;;;;;0.20;0.10;;;;;;;;;;5053308;28;20041;-79
2024/03/04 08:57:33;;;;;;;0.20;0.00;;;;;;;;;;5071825;28;20037;-80
2024/03/04 08:59:59;;;;;;;0.20;0.15;;;;;;;;;;5075032;28;20085;-79
2024/03/04 09:02:25;;;;;;;0.85;0.77;;;;;;;;;;5076005;28;20048;-78
2024/03/04 09:04:51;;;;;;;0.20;0.10;;;;;;;;;;5054028;28;20390;-80
2024/03/04 09:07:19;;;;;;;0.20;0.10;;;;;;;;;;5041330;28;20082;-77
2024/03/04 09:09:53;;;;;;;0.22;0.20;;;;;;;;;;5041376;28;20056;-79
2024/03/04 09:12:20;;;;;;;0.20;0.00;;;;;;;;;;5051039;28;20036;-79
2024/03/04 09:14:46;;;;;;;0.20;0.00;;;;;;;;;;5068959;28;20040;-80
2024/03/04 09:17:12;;;;;;;0.20;0.00;;;;;;;;;;5081880;28;20060;-79
2024/03/04 09:19:41;;;;;;;0.47;0.47;;;;;;;;;;5068526;28;20028;-78
2024/03/04 09:22:07;;;;;;;0.20;0.00;;;;;;;;;;5082807;28;20075;-80
2024/03/04 09:24:33;;;;;;;0.57;0.38;;;;;;;;;;5081086;28;20400;-80
2024/03/04 09:26:59;;;;;;;0.20;0.10;;;;;;;;;;5055636;28;20041;-79
2024/03/04 09:29:25;;;;;;;0.32;0.32;;;;;;;;;;5078164;28;20041;-79
2024/03/04 09:31:51;;;;;;;0.20;0.10;;;;;;;;;;5057627;28;20036;-78
2024/03/04 09:34:17;;;;;;;0.20;0.08;;;;;;;;;;5054870;28;20049;-79
2024/03/04 09:36:43;;;;;;;0.20;0.05;;;;;;;;;;5081262;28;20033;-78
2024/03/04 09:39:09;;;;;;;0.20;0.10;;;;;;;;;;5086577;28;20044;-79
2024/03/04 09:41:38;;;;;;;0.20;0.10;;;;;;;;;;5078149;28;20072;-78
2024/03/04 09:44:05;;;;;;;0.20;0.00;;;;;;;;;;5085646;28;20020;-79
2024/03/04 09:46:35;;;;;;;0.20;0.10;;;;;;;;;;5089240;28;20268;-78
2024/03/04 09:49:02;;;;;;;0.20;0.10;;;;;;;;;;5079324;28;20076;-79
2024/03/04 09:51:30;;;;;;;0.22;0.05;;;;;;;;;;5079576;28;20067;-79
2024/03/04 09:54:01;;;;;;;0.20;0.10;;;;;;;;;;5083141;28;20449;-78
2024/03/04 09:56:28;;;;;;;0.30;0.30;;;;;;;;;;5080971;28;20029;-78
2024/03/04 09:58:54;;;;;;;0.40;0.40;;;;;;;;;;5082113;28;20091;-79
2024/03/04 10:01:20;;;;;;;0.35;0.35;;;;;;;;;;5080436;28;20107;-78
2024/03/04 10:03:47;;;;;;;0.20;0.10;;;;;;;;;;5080238;28;20096;-79
2024/03/04 10:06:14;;;;;;;0.20;0.10;;;;;;;;;;5080913;28;20047;-81
2024/03/04 10:08:40;;;;;;;0.30;0.13;;;;;;;;;;5084498;28;20033;-79
2024/03/04 10:11:06;;;;;;;0.20;0.00;;;;;;;;;;5080297;28;20040;-79
2024/03/04 10:13:32;;;;;;;0.22;0.20;;;;;;;;;;5087296;28;20090;-79
2024/03/04 10:15:58;;;;;;;0.20;0.10;;;;;;;;;;5067364;28;20078;-80
2024/03/04 10:18:24;;;;;;;3.13;0.65;;;;;;;;;;5086708;28;20020;-79
2024/03/04 10:20:55;;;;;;;0.57;0.57;;;;;;;;;;5087515;28;20151;-80
2024/03/04 10:23:23;;;;;;;0.45;0.45;;;;;;;;;;5072632;28;20047;-79
2024/03/04 10:26:06;;;;;;;0.98;0.90;;;;;;;;;;5087687;28;20032;-79
2024/03/04 10:28:38;;;;;;;0.20;0.05;;;;;;;;;;5078859;28;20068;-79
2024/03/04 10:31:10;;;;;;;0.28;0.20;;;;;;;;;;5075149;28;20020;-79
2024/03/04 10:33:37;;;;;;;0.20;0.10;;;;;;;;;;5085634;28;20068;-80
2024/03/04 10:36:21;;;;;;;0.20;0.10;;;;;;;;;;5077992;28;20028;-80
2024/03/04 10:38:48;;;;;;;0.20;0.10;;;;;;;;;;5079518;28;20043;-79
2024/03/04 10:41:15;;;;;;;0.20;0.10;;;;;;;;;;5088709;28;20024;-79
2024/03/04 10:43:43;;;;;;;0.20;0.05;;;;;;;;;;5083410;28;20079;-80
2024/03/04 10:46:09;;;;;;;0.20;0.05;;;;;;;;;;5050748;28;20034;-79
2024/03/04 10:48:35;;;;;;;0.20;0.10;;;;;;;;;;5069071;28;20033;-79
2024/03/04 10:51:01;;;;;;;0.20;0.10;;;;;;;;;;5080820;28;20109;-82
2024/03/04 10:53:27;;;;;;;0.20;0.10;;;;;;;;;;5069023;28;20032;-80
2024/03/04 10:55:54;;;;;;;0.75;0.38;;;;;;;;;;5072415;28;20107;-81
2024/03/04 10:58:21;;;;;;;0.20;0.00;;;;;;;;;;5043773;28;20033;-83
2024/03/04 11:00:48;;;;;;;0.20;0.00;;;;;;;;;;5030861;28;20165;-82
2024/03/04 11:03:16;;;;;;;1.60;0.52;;;;;;;;;;5046284;28;20123;-83
2024/03/04 11:05:47;;;;;;;0.20;0.10;;;;;;;;;;5039283;28;20062;-82
2024/03/04 11:08:17;;;;;;;0.20;0.10;;;;;;;;;;5055915;28;20105;-81
2024/03/04 11:10:43;;;;;;;0.22;0.22;;;;;;;;;;5079151;28;20045;-82
2024/03/04 11:13:22;;;;;;;0.20;0.10;;;;;;;;;;5038769;28;20066;-80
2024/03/04 11:15:51;;;;;;;4.57;0.57;;;;;;;;;;5075286;28;20106;-82
2024/03/04 11:18:25;;;;;;;1.58;0.57;;;;;;;;;;5080123;28;21173;-81
2024/03/04 11:20:51;;;;;;;0.20;0.10;;;;;;;;;;5076256;28;20040;-81
2024/03/04 11:23:18;;;;;;;0.20;0.10;;;;;;;;;;5081091;28;20087;-82
2024/03/04 11:25:45;;;;;;;0.20;0.10;;;;;;;;;;5041977;28;20037;-80
2024/03/04 11:28:12;;;;;;;0.20;0.10;;;;;;;;;;5052271;28;20036;-81
2024/03/04 11:30:40;;;;;;;0.20;0.10;;;;;;;;;;5077661;28;20063;-80
2024/03/04 11:33:25;;;;;;;0.20;0.17;;;;;;;;;;5082923;28;20051;-82
2024/03/04 11:35:51;;;;;;;0.52;0.52;;;;;;;;;;5079765;28;20070;-81
2024/03/04 11:38:26;;;;;;;0.20;0.10;;;;;;;;;;5049195;28;20033;-80
2024/03/04 11:40:57;;;;;;;0.22;0.15;;;;;;;;;;5085732;28;20033;-79
2024/03/04 11:43:41;;;;;;;2.22;0.30;;;;;;;;;;5064494;28;20055;-80
2024/03/04 11:46:14;;;;;;;0.22;0.20;;;;;;;;;;5080708;28;20302;-81
2024/03/04 11:48:41;;;;;;;0.25;0.25;;;;;;;;;;5081074;28;20044;-81
2024/03/04 11:51:07;;;;;;;0.20;0.10;;;;;;;;;;5048719;28;20032;-81
2024/03/04 11:53:38;;;;;;;0.20;0.10;;;;;;;;;;5078842;28;20062;-81
2024/03/04 11:56:05;;;;;;;0.20;0.20;;;;;;;;;;5057322;28;20041;-80
2024/03/04 11:58:34;;;;;;;0.43;0.30;;;;;;;;;;5054513;28;20556;-81
2024/03/04 12:01:00;;;;;;;0.20;0.17;;;;;;;;;;5071149;28;20040;-81
2024/03/04 12:03:26;;;;;;;0.30;0.20;;;;;;;;;;5072446;28;20063;-81
2024/03/04 12:05:52;;;;;;;1.13;0.98;;;;;;;;;;5047257;28;20068;-79
2024/03/04 12:08:18;;;;;;;0.20;0.00;;;;;;;;;;5082518;28;20032;-80
2024/03/04 12:10:44;;;;;;;0.20;0.10;;;;;;;;;;5084905;22;20049;-82
2024/03/04 12:13:11;;;;;;;0.20;0.10;;;;;;;;;;5051803;28;20036;-82
2024/03/04 12:15:39;;;;;;;0.20;0.10;;;;;;;;;;5047827;28;20678;-81
2024/03/04 12:18:05;;;;;;;1.25;0.95;;;;;;;;;;5050761;28;20093;-82
2024/03/04 12:20:31;;;;;;;0.20;0.10;;;;;;;;;;5026407;28;21148;-83
2024/03/04 12:22:57;;;;;;;0.20;0.10;;;;;;;;;;5013795;28;20037;-82
2024/03/04 12:25:27;;;;;;;0.73;0.73;;;;;;;;;;5010109;28;20052;-82
2024/03/04 12:27:54;;;;;;;0.47;0.40;;;;;;;;;;5032025;28;20047;-81
2024/03/04 12:30:21;;;;;;;0.25;0.25;;;;;;;;;;5016572;28;20240;-82
2024/03/04 12:32:50;;;;;;;0.75;0.75;;;;;;;;;;5018098;28;20076;-82
2024/03/04 12:35:25;;;;;;;0.20;0.13;;;;;;;;;;5029517;28;20033;-82
2024/03/04 12:37:52;;;;;;;0.20;0.00;;;;;;;;;;5015892;28;20459;-82
2024/03/04 12:40:19;;;;;;;0.75;0.10;;;;;;;;;;5015495;28;20036;-83
2024/03/04 12:42:45;;;;;;;1.52;0.35;;;;;;;;;;5013951;28;20120;-82
2024/03/04 12:45:12;;;;;;;0.20;0.10;;;;;;;;;;5017026;28;20455;-82
2024/03/04 12:47:38;;;;;;;0.20;0.20;;;;;;;;;;5027901;28;20057;-82
2024/03/04 12:50:08;;;;;;;0.20;0.05;;;;;;;;;;5019957;28;20473;-81
2024/03/04 12:52:35;;;;;;;0.20;0.10;;;;;;;;;;5018248;28;20037;-82
2024/03/04 12:55:01;;;;;;;1.65;0.30;;;;;;;;;;5034017;28;20041;-83
2024/03/04 12:57:27;;;;;;;0.20;0.10;;;;;;;;;;5030274;28;20037;-81
2024/03/04 12:59:56;;;;;;;0.40;0.25;;;;;;;;;;5030936;28;20144;-81
2024/03/04 13:02:22;;;;;;;0.30;0.20;;;;;;;;;;5027808;28;20381;-81
2024/03/04 13:04:50;;;;;;;0.80;0.63;;;;;;;;;;5030266;28;20068;-81
2024/03/04 13:07:16;;;;;;;0.20;0.10;;;;;;;;;;5031733;28;20045;-82
2024/03/04 13:09:42;;;;;;;0.47;0.47;;;;;;;;;;5017811;28;20098;-81
2024/03/04 13:12:09;;;;;;;0.30;0.30;;;;;;;;;;5031811;28;20044;-82
2024/03/04 13:14:35;;;;;;;0.40;0.30;;;;;;;;;;5025459;28;20045;-82
2024/03/04 13:17:01;;;;;;;0.20;0.10;;;;;;;;;;5016465;28;20162;-82
2024/03/04 13:19:27;;;;;;;0.43;0.43;;;;;;;;;;5013302;28;20059;-82
2024/03/04 13:21:55;;;;;;;0.20;0.00;;;;;;;;;;5026619;28;20045;-81
2024/03/04 13:24:21;;;;;;;0.88;0.30;;;;;;;;;;5021036;28;20040;-82
2024/03/04 13:26:47;;;;;;;0.20;0.20;;;;;;;;;;5029204;28;20118;-82
2024/03/04 13:29:13;;;;;;;0.60;0.60;;;;;;;;;;5026759;28;20044;-83
2024/03/04 13:31:39;;;;;;;0.20;0.05;;;;;;;;;;5015981;28;20425;-81
2024/03/04 13:34:05;;;;;;;1.65;1.17;;;;;;;;;;5014906;28;20427;-81
2024/03/04 13:36:31;;;;;;;0.20;0.00;;;;;;;;;;5022947;28;20039;-82
2024/03/04 13:38:57;;;;;;;0.28;0.25;;;;;;;;;;5011157;28;20029;-81
2024/03/04 13:41:23;;;;;;;0.20;0.10;;;;;;;;;;5025219;28;20064;-81
2024/03/04 13:43:49;;;;;;;0.82;0.73;;;;;;;;;;5029431;28;20063;-81
2024/03/04 13:46:15;;;;;;;0.63;0.63;;;;;;;;;;5025390;28;20687;-81
2024/03/04 13:48:41;;;;;;;0.50;0.30;;;;;;;;;;5013262;28;20049;-82
2024/03/04 13:51:07;;;;;;;0.50;0.50;;;;;;;;;;5022599;28;20309;-81
2024/03/04 13:53:34;;;;;;;1.38;1.08;;;;;;;;;;5011171;28;20037;-82
2024/03/04 13:56:01;;;;;;;1.00;0.40;;;;;;;;;;5003370;28;20076;-81
2024/03/04 13:58:27;;;;;;;0.40;0.40;;;;;;;;;;5027611;28;20052;-81
2024/03/04 14:00:53;;;;;;;1.10;0.30;;;;;;;;;;5025353;28;20409;-81
2024/03/04 14:03:19;;;;;;;0.20;0.10;;;;;;;;;;5027007;28;20044;-81
2024/03/04 14:05:45;;;;;;;0.90;0.68;;;;;;;;;;5013281;28;20557;-82
2024/03/04 14:08:11;;;;;;;0.25;0.20;;;;;;;;;;5015608;28;20108;-82
2024/03/04 14:10:37;;;;;;;0.43;0.43;;;;;;;;;;5019389;28;20052;-82
2024/03/04 14:13:04;;;;;;;0.20;0.00;;;;;;;;;;5025305;28;20206;-82
2024/03/04 14:15:30;;;;;;;0.20;0.10;;;;;;;;;;5011127;28;20132;-83
2024/03/04 14:17:56;;;;;;;0.20;0.00;;;;;;;;;;5010371;28;20117;-84
2024/03/04 14:20:22;;;;;;;0.20;0.10;;;;;;;;;;5014516;28;20037;-82
2024/03/04 14:22:48;;;;;;;0.20;0.10;;;;;;;;;;5006579;28;20671;-82
2024/03/04 14:25:14;;;;;;;0.20;0.10;;;;;;;;;;5026884;28;20052;-83
2024/03/04 14:27:40;;;;;;;0.28;0.20;;;;;;;;;;5015065;28;20041;-83
2024/03/04 14:30:06;;;;;;;0.20;0.00;;;;;;;;;;5020885;28;20119;-83
2024/03/04 14:32:32;;;;;;;0.20;0.03;;;;;;;;;;5027721;28;20556;-82
2024/03/04 14:34:58;;;;;;;0.20;0.15;;;;;;;;;;5008414;28;20045;-83
2024/03/04 14:37:24;;;;;;;0.20;0.10;;;;;;;;;;5023660;28;20479;-83
2024/03/04 14:39:52;;;;;;;0.20;0.00;;;;;;;;;;5025323;28;20034;-82
2024/03/04 14:42:18;;;;;;;0.20;0.00;;;;;;;;;;5019133;28;20095;-82
2024/03/04 14:44:44;;;;;;;0.20;0.10;;;;;;;;;;5023432;28;20045;-82